Time;durP1;ratioP1;P1;durP2;ratioP2;P2;SDS_P1;SDS_P2;PMS_P1;PMS_P2;Temp;Humidity;BMP_temperature;BMP_pressure;BME280_temperature;BME280_humidity;BME280_pressure;Samples;Min_cycle;Max_cycle;Signal;HPM_P1;HPM_P2
2022/01/27 00:05:04;;;;;;;49.45;24.48;;;6.10;99.90;;;;;;4973924;28;20085;-85
2022/01/27 00:07:30;;;;;;;42.47;23.75;;;6.40;99.90;;;;;;4958603;28;20047;-83
2022/01/27 00:10:13;;;;;;;45.28;23.80;;;6.10;99.90;;;;;;4982597;28;20111;-84
2022/01/27 00:12:42;;;;;;;42.60;22.60;;;6.10;99.90;;;;;;4974079;28;20051;-84
2022/01/27 00:15:10;;;;;;;49.28;26.73;;;6.30;99.90;;;;;;4958517;28;20133;-84
2022/01/27 00:17:41;;;;;;;50.83;26.23;;;6.10;99.90;;;;;;4974299;28;20402;-84
2022/01/27 00:20:07;;;;;;;49.58;26.77;;;6.10;99.90;;;;;;4958663;28;20195;-84
2022/01/27 00:22:33;;;;;;;54.85;28.80;;;6.00;99.90;;;;;;4958568;28;20046;-84
2022/01/27 00:25:04;;;;;;;54.40;29.45;;;6.00;99.90;;;;;;4974097;28;20061;-85
2022/01/27 00:27:30;;;;;;;55.88;27.95;;;5.90;99.90;;;;;;4974313;28;20038;-85
2022/01/27 00:29:56;;;;;;;52.28;27.10;;;6.00;99.90;;;;;;4991111;28;20042;-84
2022/01/27 00:32:22;;;;;;;37.83;20.85;;;5.90;99.90;;;;;;4973973;28;20058;-86
2022/01/27 00:34:58;;;;;;;48.65;24.48;;;6.00;99.90;;;;;;4973978;28;20046;-84
2022/01/27 00:37:23;;;;;;;47.00;24.83;;;6.20;99.90;;;;;;4973867;28;20085;-84
2022/01/27 00:39:49;;;;;;;50.00;24.55;;;6.20;99.90;;;;;;4991083;28;20175;-86
2022/01/27 00:42:20;;;;;;;52.67;28.92;;;6.10;99.90;;;;;;4957369;28;20058;-83
2022/01/27 00:44:46;;;;;;;51.70;26.27;;;6.10;99.90;;;;;;4973745;28;20050;-83
2022/01/27 00:47:11;;;;;;;53.20;26.35;;;6.10;99.90;;;;;;4991340;28;20402;-84
2022/01/27 00:49:39;;;;;;;49.63;26.45;;;6.10;99.90;;;;;;4991047;28;20085;-84
2022/01/27 00:52:09;;;;;;;50.58;27.15;;;6.10;99.90;;;;;;4941983;28;20641;-84
2022/01/27 00:54:35;;;;;;;51.67;26.52;;;6.00;99.90;;;;;;4973353;28;20066;-83
2022/01/27 00:57:34;;;;;;;51.28;26.90;;;6.40;99.90;;;;;;4973770;28;20046;-85
2022/01/27 00:59:58;;;;;;;48.58;25.00;;;6.00;99.90;;;;;;4972529;28;20054;-85
2022/01/27 01:05:14;;;;;;;43.13;22.85;;;6.10;99.90;;;;;;4952706;28;20105;-84
2022/01/27 01:09:10;;;;;;;49.08;24.80;;;5.90;99.90;;;;;;4966967;28;20089;-84
2022/01/27 01:30:45;;;;;;;49.92;25.30;;;5.90;99.90;;;;;;4970177;28;20059;-85
2022/01/27 01:33:11;;;;;;;45.88;25.00;;;5.80;99.90;;;;;;4970116;28;20059;-84
2022/01/27 01:38:48;;;;;;;45.55;24.88;;;6.00;99.90;;;;;;4970204;28;20138;-84
2022/01/27 01:41:14;;;;;;;40.97;24.42;;;5.90;99.90;;;;;;4969803;28;20049;-85
2022/01/27 01:43:39;;;;;;;42.40;24.35;;;5.90;99.90;;;;;;4973763;28;20047;-85
2022/01/27 01:46:05;;;;;;;40.00;22.38;;;5.90;99.90;;;;;;4973137;28;20094;-85
2022/01/27 01:48:31;;;;;;;49.30;23.25;;;5.80;99.90;;;;;;4974455;28;20042;-84
2022/01/27 01:50:57;;;;;;;49.58;26.10;;;5.90;99.90;;;;;;4957562;28;20050;-84
2022/01/27 01:53:26;;;;;;;48.17;26.58;;;5.90;99.90;;;;;;4974557;28;20083;-85
2022/01/27 01:59:38;;;;;;;39.83;18.85;;;5.90;99.90;;;;;;4973975;28;20050;-85
2022/01/27 02:02:03;;;;;;;41.78;25.38;;;5.80;99.90;;;;;;4956805;28;20047;-86
2022/01/27 02:04:29;;;;;;;43.97;23.00;;;5.70;99.90;;;;;;4975060;28;20055;-85
2022/01/27 02:18:16;;;;;;;41.90;22.70;;;5.80;99.90;;;;;;4976142;28;20111;-85
2022/01/27 02:20:42;;;;;;;46.95;24.77;;;5.70;99.90;;;;;;4992788;28;20046;-85
2022/01/27 02:23:08;;;;;;;48.35;25.70;;;5.90;99.90;;;;;;4959431;28;20049;-85
2022/01/27 02:25:35;;;;;;;44.40;24.27;;;5.80;99.90;;;;;;4944466;28;20050;-85
2022/01/27 02:28:00;;;;;;;42.38;24.15;;;5.80;99.90;;;;;;4993130;28;20100;-85
2022/01/27 02:30:26;;;;;;;43.65;24.48;;;6.00;99.90;;;;;;4960062;28;20425;-85
2022/01/27 02:32:58;;;;;;;38.65;22.20;;;5.90;99.90;;;;;;4976389;28;20485;-84
2022/01/27 02:35:31;;;;;;;47.72;25.63;;;5.90;99.90;;;;;;4962405;28;20113;-84
2022/01/27 02:37:57;;;;;;;38.17;20.13;;;5.90;99.90;;;;;;4975873;28;20055;-84
2022/01/27 02:40:28;;;;;;;44.92;23.73;;;5.90;99.90;;;;;;4975473;28;20062;-87
2022/01/27 02:42:54;;;;;;;46.95;24.35;;;6.00;99.90;;;;;;4975037;28;20050;-85
2022/01/27 02:45:27;;;;;;;46.05;23.77;;;6.00;99.90;;;;;;4975116;28;20135;-85
2022/01/27 02:47:53;;;;;;;50.60;24.57;;;6.50;99.90;;;;;;4975539;28;20061;-85
2022/01/27 02:50:39;;;;;;;38.47;20.92;;;6.00;99.90;;;;;;4992245;28;20038;-85
2022/01/27 02:53:06;;;;;;;45.50;23.85;;;6.00;99.90;;;;;;4975138;28;20042;-85
2022/01/27 02:55:32;;;;;;;43.13;23.63;;;5.90;99.90;;;;;;4975273;28;20058;-85
2022/01/27 02:57:59;;;;;;;47.05;26.17;;;5.90;99.90;;;;;;4959305;28;20057;-85
2022/01/27 03:00:24;;;;;;;45.15;24.73;;;6.20;99.90;;;;;;4992448;28;20046;-85
2022/01/27 03:02:50;;;;;;;44.95;26.17;;;5.90;99.90;;;;;;4974972;28;20053;-84
2022/01/27 03:05:18;;;;;;;46.10;23.52;;;6.40;99.90;;;;;;4992129;28;20108;-84
2022/01/27 03:07:47;;;;;;;45.15;25.13;;;5.90;99.90;;;;;;4992261;28;20046;-85
2022/01/27 03:10:17;;;;;;;41.30;21.00;;;5.90;99.90;;;;;;4975605;28;20125;-86
2022/01/27 03:12:43;;;;;;;44.40;25.98;;;6.00;99.90;;;;;;4974280;28;20042;-85
2022/01/27 03:15:11;;;;;;;49.53;26.13;;;5.90;99.90;;;;;;4943053;28;20563;-85
2022/01/27 03:17:37;;;;;;;46.42;26.85;;;5.90;99.90;;;;;;4974994;28;20492;-84
2022/01/27 03:20:03;;;;;;;52.53;26.98;;;5.90;99.90;;;;;;4975071;28;20046;-85
2022/01/27 03:22:29;;;;;;;47.83;25.50;;;5.80;99.90;;;;;;4974739;28;20111;-84
2022/01/27 03:24:54;;;;;;;50.50;25.20;;;5.90;99.90;;;;;;4974822;28;20050;-84
2022/01/27 03:27:24;;;;;;;50.95;27.48;;;5.90;99.90;;;;;;4974322;28;20046;-84
2022/01/27 03:29:49;;;;;;;51.25;25.40;;;6.50;99.90;;;;;;4974598;28;20062;-84
2022/01/27 03:32:15;;;;;;;51.40;28.35;;;6.00;99.90;;;;;;4974878;28;20054;-84
2022/01/27 03:34:41;;;;;;;55.85;29.35;;;5.80;99.90;;;;;;4958368;28;20084;-85
2022/01/27 03:37:07;;;;;;;48.00;26.45;;;5.90;99.90;;;;;;4974976;28;20065;-84
2022/01/27 03:39:35;;;;;;;52.70;27.88;;;5.90;99.90;;;;;;4991657;28;20480;-83
2022/01/27 03:42:01;;;;;;;54.92;28.52;;;6.00;99.90;;;;;;4991789;28;20179;-84
2022/01/27 03:44:29;;;;;;;53.33;27.50;;;5.90;99.90;;;;;;4974369;28;20054;-84
2022/01/27 03:46:55;;;;;;;49.03;25.65;;;5.90;99.90;;;;;;4974077;28;20050;-84
2022/01/27 03:49:23;;;;;;;41.83;23.60;;;5.90;99.90;;;;;;4958003;28;20053;-84
2022/01/27 03:52:23;;;;;;;55.42;27.92;;;5.90;99.90;;;;;;4974492;28;20050;-84
2022/01/27 03:54:48;;;;;;;54.30;26.73;;;5.90;99.90;;;;;;4991563;28;20069;-84
2022/01/27 03:57:14;;;;;;;50.60;30.05;;;5.90;99.90;;;;;;4991662;28;20464;-84
2022/01/27 03:59:40;;;;;;;55.25;26.63;;;5.80;99.90;;;;;;4974197;28;20054;-83
2022/01/27 04:02:05;;;;;;;50.92;26.20;;;5.90;99.90;;;;;;4990874;28;20054;-84
2022/01/27 04:04:37;;;;;;;49.22;25.98;;;5.90;99.90;;;;;;4973543;28;20046;-84
2022/01/27 04:07:03;;;;;;;52.58;26.27;;;5.90;99.90;;;;;;4991137;28;20380;-84
2022/01/27 04:09:30;;;;;;;52.65;27.15;;;6.00;99.90;;;;;;4991252;28;20051;-84
2022/01/27 04:11:56;;;;;;;54.38;29.35;;;6.00;99.90;;;;;;4990846;28;20135;-85
2022/01/27 04:14:21;;;;;;;42.58;19.52;;;6.00;99.90;;;;;;4973776;28;20460;-85
2022/01/27 04:16:47;;;;;;;46.45;25.17;;;6.10;99.90;;;;;;4973617;28;20053;-84
2022/01/27 04:19:13;;;;;;;55.10;27.65;;;6.00;99.90;;;;;;4958258;28;20050;-85
2022/01/27 04:21:38;;;;;;;50.92;27.42;;;6.70;99.90;;;;;;4991066;28;20385;-85
2022/01/27 04:24:04;;;;;;;42.40;22.92;;;5.90;99.90;;;;;;4973676;28;20142;-85
2022/01/27 04:27:07;;;;;;;48.38;28.83;;;5.90;99.90;;;;;;4973729;28;20050;-84
2022/01/27 04:29:23;;;;;;;49.95;27.73;;;5.90;99.90;;;;;;4969779;28;20141;-84
2022/01/27 04:31:50;;;;;;;52.40;26.63;;;5.90;99.90;;;;;;4990714;28;20472;-84
2022/01/27 04:34:15;;;;;;;48.97;27.58;;;6.00;99.90;;;;;;4973256;28;20054;-84
2022/01/27 04:36:42;;;;;;;52.55;28.05;;;6.00;99.90;;;;;;4973648;28;20057;-85
2022/01/27 04:42:05;;;;;;;44.97;24.73;;;5.90;99.90;;;;;;4960461;28;20065;-83
2022/01/27 04:44:49;;;;;;;55.55;25.15;;;6.10;99.90;;;;;;4960974;28;20133;-83
2022/01/27 04:47:22;;;;;;;46.55;26.63;;;6.00;99.90;;;;;;4973386;28;20046;-85
2022/01/27 04:49:47;;;;;;;47.20;23.98;;;6.60;99.90;;;;;;4973704;28;20055;-84
2022/01/27 04:52:13;;;;;;;56.55;28.83;;;6.40;99.90;;;;;;4973052;28;20049;-84
2022/01/27 04:55:02;;;;;;;50.15;25.73;;;6.00;99.90;;;;;;4990446;28;20046;-85
2022/01/27 04:57:42;;;;;;;50.50;26.67;;;6.00;99.90;;;;;;4961723;28;20446;-84
2022/01/27 05:00:10;;;;;;;56.28;26.35;;;6.00;99.90;;;;;;4990661;28;20097;-84
2022/01/27 05:02:45;;;;;;;45.95;21.83;;;5.90;99.90;;;;;;4973405;28;20051;-85
2022/01/27 05:05:20;;;;;;;52.80;29.88;;;6.00;99.90;;;;;;4957824;28;20050;-84
2022/01/27 05:07:54;;;;;;;50.58;26.45;;;6.00;99.90;;;;;;4990663;28;20050;-84
2022/01/27 05:10:23;;;;;;;47.53;21.20;;;6.00;99.90;;;;;;4973136;28;20047;-85
2022/01/27 05:12:51;;;;;;;54.90;28.35;;;6.30;99.90;;;;;;4990332;28;20057;-86
2022/01/27 05:15:42;;;;;;;54.05;27.27;;;6.50;99.90;;;;;;4973821;28;20494;-85
2022/01/27 05:18:08;;;;;;;55.58;28.83;;;6.00;99.90;;;;;;4974941;28;20085;-85
2022/01/27 05:20:34;;;;;;;55.17;28.63;;;6.20;99.90;;;;;;4960445;28;20514;-85
2022/01/27 05:22:59;;;;;;;47.13;25.80;;;6.00;99.90;;;;;;4960344;28;20133;-85
2022/01/27 05:25:25;;;;;;;59.40;28.45;;;6.00;99.90;;;;;;4993955;28;20057;-85
2022/01/27 05:27:51;;;;;;;51.30;25.55;;;6.00;99.90;;;;;;4976250;28;20062;-85
2022/01/27 05:30:17;;;;;;;52.72;26.42;;;6.10;99.90;;;;;;4993776;28;20489;-85
2022/01/27 05:32:42;;;;;;;58.97;29.55;;;6.10;99.90;;;;;;4976370;28;20069;-85
2022/01/27 05:35:11;;;;;;;55.95;27.30;;;6.20;99.90;;;;;;4977585;28;20046;-85
2022/01/27 05:37:37;;;;;;;53.45;27.67;;;6.10;99.90;;;;;;4993587;28;20046;-86
2022/01/27 05:44:24;;;;;;;62.78;28.48;;;6.00;99.90;;;;;;4993479;28;20135;-86
2022/01/27 05:50:31;;;;;;;64.13;28.48;;;5.90;99.90;;;;;;4993629;28;20536;-83
2022/01/27 05:52:57;;;;;;;69.20;29.88;;;5.90;99.90;;;;;;4976345;28;20050;-85
2022/01/27 05:55:23;;;;;;;65.95;32.10;;;5.90;99.90;;;;;;4944482;28;20061;-85
2022/01/27 05:57:48;;;;;;;68.35;29.50;;;5.90;99.90;;;;;;4976098;28;20046;-83
2022/01/27 06:00:14;;;;;;;72.22;32.35;;;5.90;99.90;;;;;;4976048;28;20093;-84
2022/01/27 06:02:40;;;;;;;72.70;31.10;;;5.90;99.90;;;;;;4960152;28;20077;-85
2022/01/27 06:05:06;;;;;;;72.68;31.05;;;5.90;99.90;;;;;;4976241;28;20096;-85
2022/01/27 06:07:32;;;;;;;65.45;28.83;;;5.90;99.90;;;;;;4956746;28;20054;-84
2022/01/27 06:09:57;;;;;;;67.82;25.77;;;6.00;99.90;;;;;;4956841;28;20043;-84
2022/01/27 06:12:23;;;;;;;84.13;33.25;;;6.00;99.90;;;;;;4972838;28;20134;-84
2022/01/27 06:14:49;;;;;;;73.60;31.30;;;6.00;99.90;;;;;;4956728;28;20125;-85
2022/01/27 06:17:15;;;;;;;67.28;25.52;;;6.00;99.90;;;;;;4972623;28;20103;-85
2022/01/27 06:19:44;;;;;;;77.75;31.40;;;6.10;99.90;;;;;;4972205;28;20046;-85
2022/01/27 06:22:11;;;;;;;75.45;30.35;;;6.00;99.90;;;;;;4971964;28;20051;-85
2022/01/27 06:24:44;;;;;;;77.28;31.02;;;6.00;99.90;;;;;;4924597;28;20061;-86
2022/01/27 06:27:10;;;;;;;75.00;32.25;;;6.00;99.90;;;;;;4956360;28;20108;-86
2022/01/27 06:29:36;;;;;;;81.72;28.63;;;6.00;99.90;;;;;;4955653;28;20055;-84
2022/01/27 06:32:02;;;;;;;73.18;29.55;;;6.00;99.90;;;;;;4955478;28;20054;-88
2022/01/27 06:34:28;;;;;;;90.03;31.90;;;6.10;99.90;;;;;;4971416;28;20073;-85
2022/01/27 06:36:53;;;;;;;70.43;31.45;;;6.10;99.90;;;;;;4954833;28;20477;-85
2022/01/27 06:39:19;;;;;;;71.18;28.50;;;6.20;99.90;;;;;;4972680;28;20050;-84
2022/01/27 06:41:45;;;;;;;68.05;28.70;;;6.20;99.90;;;;;;4973792;28;20051;-84
2022/01/27 06:44:11;;;;;;;63.40;28.17;;;6.10;99.90;;;;;;4976745;28;20050;-84
2022/01/27 06:46:36;;;;;;;62.70;25.30;;;7.20;99.90;;;;;;4971548;28;20055;-85
2022/01/27 06:49:03;;;;;;;66.68;27.23;;;6.20;99.90;;;;;;4955476;28;20047;-84
2022/01/27 06:51:29;;;;;;;61.20;28.20;;;6.30;99.90;;;;;;4939355;28;20051;-84
2022/01/27 06:53:55;;;;;;;66.50;27.73;;;6.60;99.90;;;;;;4954734;28;20070;-85
2022/01/27 06:56:21;;;;;;;63.75;29.70;;;6.20;99.90;;;;;;4935048;29;20481;-85
2022/01/27 06:58:46;;;;;;;73.43;28.98;;;6.20;99.90;;;;;;4936007;29;20069;-86
2022/01/27 07:01:12;;;;;;;62.50;27.65;;;6.20;99.90;;;;;;4952661;28;20061;-85
2022/01/27 07:03:38;;;;;;;63.90;26.35;;;7.00;99.90;;;;;;4951192;28;20043;-85
2022/01/27 07:06:03;;;;;;;65.28;25.15;;;6.40;99.90;;;;;;4951590;28;20051;-85
2022/01/27 07:08:29;;;;;;;69.53;28.73;;;6.30;99.90;;;;;;4951862;29;20063;-85
2022/01/27 07:10:55;;;;;;;50.95;22.67;;;6.30;99.90;;;;;;4952929;29;20055;-85
2022/01/27 07:13:20;;;;;;;56.63;23.83;;;6.40;99.90;;;;;;4953245;28;20047;-84
2022/01/27 07:15:46;;;;;;;57.17;26.70;;;6.40;99.90;;;;;;4952002;29;20177;-84
2022/01/27 07:18:11;;;;;;;51.70;24.25;;;6.40;99.90;;;;;;4953028;29;20066;-84
2022/01/27 07:20:37;;;;;;;55.83;24.75;;;6.40;99.90;;;;;;4951861;29;20051;-84
2022/01/27 07:23:05;;;;;;;48.47;21.23;;;6.50;99.90;;;;;;4935856;28;20130;-84
2022/01/27 07:25:31;;;;;;;54.40;24.85;;;6.70;99.90;;;;;;4951381;29;20062;-84
2022/01/27 07:27:57;;;;;;;48.90;22.83;;;6.40;99.90;;;;;;4951800;29;20047;-84
2022/01/27 07:30:23;;;;;;;55.25;22.08;;;6.50;99.90;;;;;;4935421;28;20473;-85
2022/01/27 07:32:48;;;;;;;53.50;23.52;;;6.50;99.90;;;;;;4951255;29;20140;-85
2022/01/27 07:35:14;;;;;;;44.65;22.23;;;6.50;99.90;;;;;;4951797;29;20078;-85
2022/01/27 07:37:42;;;;;;;48.75;21.92;;;6.60;99.90;;;;;;4951110;29;20055;-84
2022/01/27 07:40:09;;;;;;;47.05;21.60;;;6.60;99.90;;;;;;4935045;28;20055;-84
2022/01/27 07:42:34;;;;;;;43.90;21.20;;;6.60;99.90;;;;;;4952023;28;20058;-84
2022/01/27 07:45:00;;;;;;;43.97;20.25;;;6.60;99.90;;;;;;4952412;28;20405;-84
2022/01/27 07:47:25;;;;;;;38.35;19.20;;;6.60;99.90;;;;;;4952027;28;20138;-84
2022/01/27 07:49:51;;;;;;;41.03;19.70;;;6.70;99.90;;;;;;4952148;29;20051;-84
2022/01/27 07:52:19;;;;;;;40.55;19.63;;;6.70;99.90;;;;;;4950364;29;20051;-85
2022/01/27 07:54:45;;;;;;;36.72;17.27;;;6.70;99.90;;;;;;4951380;28;20051;-86
2022/01/27 07:57:12;;;;;;;31.58;17.27;;;6.70;99.90;;;;;;4950058;28;20070;-86
2022/01/27 07:59:38;;;;;;;34.05;17.50;;;6.70;99.90;;;;;;4948865;28;20071;-85
2022/01/27 08:02:04;;;;;;;33.65;17.60;;;6.70;99.90;;;;;;4951148;28;20054;-85
2022/01/27 08:04:29;;;;;;;28.65;13.50;;;6.70;99.90;;;;;;4933373;29;20047;-85
2022/01/27 08:06:56;;;;;;;33.00;16.83;;;6.90;99.90;;;;;;4949991;28;20094;-84
2022/01/27 08:09:23;;;;;;;36.25;15.52;;;6.90;99.90;;;;;;4950501;29;20055;-84
2022/01/27 08:11:48;;;;;;;44.30;19.65;;;6.90;99.90;;;;;;4950344;28;20092;-84
2022/01/27 08:14:14;;;;;;;44.17;19.65;;;6.90;99.90;;;;;;4951626;28;20051;-85
2022/01/27 08:16:40;;;;;;;34.08;16.83;;;6.90;99.90;;;;;;4950183;29;20051;-85
2022/01/27 08:19:05;;;;;;;49.00;21.20;;;7.00;99.90;;;;;;4934627;29;20159;-84
2022/01/27 08:21:31;;;;;;;52.35;21.60;;;7.00;99.90;;;;;;4951752;28;20054;-84
2022/01/27 08:23:59;;;;;;;57.35;22.48;;;7.00;99.90;;;;;;4950857;29;20051;-87
2022/01/27 08:26:47;;;;;;;58.47;23.88;;;7.10;99.90;;;;;;4917818;29;20450;-87
2022/01/27 08:29:14;;;;;;;52.75;22.27;;;7.90;99.90;;;;;;4935646;29;20515;-86
2022/01/27 08:31:55;;;;;;;51.83;22.13;;;7.20;99.90;;;;;;4934389;29;20121;-84
2022/01/27 08:34:35;;;;;;;53.45;20.50;;;7.20;99.90;;;;;;4950256;29;20113;-87
2022/01/27 08:37:28;;;;;;;42.13;16.83;;;7.30;99.90;;;;;;4905710;28;20055;-88
2022/01/27 08:39:53;;;;;;;50.15;21.10;;;7.30;99.90;;;;;;4939611;28;20066;-86
2022/01/27 08:42:19;;;;;;;52.35;20.73;;;7.40;99.90;;;;;;4950644;29;20055;-88
2022/01/27 08:44:45;;;;;;;53.33;21.42;;;7.40;99.90;;;;;;4933848;29;20166;-87
2022/01/27 08:47:15;;;;;;;45.78;19.00;;;7.40;99.90;;;;;;4919500;29;20090;-86
2022/01/27 08:49:43;;;;;;;60.05;21.17;;;7.40;99.90;;;;;;4950842;28;20062;-86
2022/01/27 08:52:09;;;;;;;45.83;19.67;;;7.50;99.90;;;;;;4952669;28;20380;-87
2022/01/27 08:54:34;;;;;;;48.72;19.63;;;7.40;99.90;;;;;;4952989;29;20059;-88
2022/01/27 08:57:00;;;;;;;59.45;19.33;;;7.50;99.90;;;;;;4953165;29;20146;-86
2022/01/27 08:59:26;;;;;;;47.28;18.25;;;7.50;99.90;;;;;;4937193;29;20267;-86
2022/01/27 09:01:51;;;;;;;39.40;17.45;;;7.60;99.90;;;;;;4953005;28;20048;-87
2022/01/27 09:04:17;;;;;;;43.42;17.52;;;7.70;99.90;;;;;;4953190;29;20079;-86
2022/01/27 09:06:43;;;;;;;41.72;18.58;;;7.60;99.90;;;;;;4924390;28;20504;-86
2022/01/27 09:09:08;;;;;;;35.13;15.02;;;7.60;99.90;;;;;;4956770;28;20070;-85
2022/01/27 09:11:34;;;;;;;34.75;16.00;;;7.70;99.90;;;;;;4941533;28;20051;-85
2022/01/27 09:14:00;;;;;;;36.33;14.43;;;7.70;99.90;;;;;;4956189;28;20059;-86
2022/01/27 09:16:27;;;;;;;35.15;14.43;;;7.80;99.90;;;;;;4955570;28;20145;-86
2022/01/27 09:18:58;;;;;;;34.03;14.18;;;7.80;99.90;;;;;;4940742;28;20150;-86
2022/01/27 09:21:27;;;;;;;35.80;14.15;;;7.80;99.90;;;;;;4941097;28;20061;-89
2022/01/27 09:23:54;;;;;;;32.25;12.98;;;7.80;99.90;;;;;;4960559;28;20050;-83
2022/01/27 09:26:40;;;;;;;33.58;12.98;;;7.90;99.90;;;;;;4945919;28;20093;-84
2022/01/27 09:29:07;;;;;;;41.08;12.77;;;7.90;99.90;;;;;;4943621;28;20061;-86
2022/01/27 09:31:33;;;;;;;33.72;12.98;;;7.90;99.90;;;;;;4924321;28;20050;-86
2022/01/27 09:33:58;;;;;;;33.15;11.23;;;8.00;99.90;;;;;;4939478;28;20051;-86
2022/01/27 09:36:24;;;;;;;33.70;11.00;;;7.90;99.90;;;;;;4955331;28;20369;-85
2022/01/27 09:38:50;;;;;;;31.42;10.43;;;8.00;99.90;;;;;;4955124;28;20088;-88
2022/01/27 09:41:19;;;;;;;35.58;11.18;;;8.00;99.90;;;;;;4939142;28;20062;-88
2022/01/27 09:43:45;;;;;;;29.35;9.65;;;8.20;99.90;;;;;;4938929;28;20625;-89
2022/01/27 09:46:11;;;;;;;28.42;9.57;;;8.20;99.90;;;;;;4939666;28;20054;-88
2022/01/27 09:48:42;;;;;;;32.83;10.50;;;8.80;99.90;;;;;;4923032;28;20054;-92
2022/01/27 09:51:25;;;;;;;30.50;10.73;;;8.30;99.90;;;;;;4955172;28;20051;-89
2022/01/27 09:53:52;;;;;;;30.00;9.30;;;8.30;99.90;;;;;;4927059;28;20050;-88
2022/01/27 09:56:18;;;;;;;29.83;9.55;;;8.40;99.90;;;;;;4954893;28;20055;-89
2022/01/27 09:58:44;;;;;;;22.58;8.75;;;8.30;99.90;;;;;;4954562;28;20381;-90
2022/01/27 10:01:09;;;;;;;23.42;8.32;;;8.30;99.90;;;;;;4939849;28;20062;-90
2022/01/27 10:03:57;;;;;;;24.73;8.65;;;8.40;99.90;;;;;;4954360;28;20133;-88
2022/01/27 10:06:27;;;;;;;23.23;7.95;;;8.40;99.90;;;;;;4952121;28;20134;-89
2022/01/27 10:09:18;;;;;;;22.70;8.23;;;8.50;99.90;;;;;;4936284;29;20055;-89
2022/01/27 10:11:46;;;;;;;22.05;8.07;;;8.50;99.90;;;;;;4951378;29;20062;-87
2022/01/27 10:14:39;;;;;;;19.88;7.47;;;8.50;99.90;;;;;;4935733;28;20063;-88
2022/01/27 10:17:10;;;;;;;26.40;8.98;;;8.50;99.90;;;;;;4951366;28;20443;-88
2022/01/27 10:19:36;;;;;;;27.27;8.85;;;8.50;99.90;;;;;;4951266;29;20106;-88
2022/01/27 10:22:13;;;;;;;30.27;8.50;;;8.50;99.90;;;;;;4935647;28;20663;-90
2022/01/27 10:24:39;;;;;;;27.58;8.20;;;8.50;99.90;;;;;;4936879;29;20499;-88
2022/01/27 10:28:10;;;;;;;26.85;7.72;;;8.60;99.90;;;;;;4919999;28;20051;-89
2022/01/27 10:30:35;;;;;;;24.15;7.70;;;8.70;99.90;;;;;;4947683;28;20055;-88
2022/01/27 10:32:54;;;;;;;22.60;7.22;;;8.60;99.90;;;;;;4937742;29;20094;-88
2022/01/27 10:35:22;;;;;;;26.25;7.80;;;8.60;99.90;;;;;;4951235;28;20511;-88
2022/01/27 10:38:04;;;;;;;22.95;7.30;;;8.70;99.90;;;;;;4919544;28;20044;-87
2022/01/27 10:40:34;;;;;;;27.23;8.05;;;8.70;99.90;;;;;;4951209;29;20047;-88
2022/01/27 10:43:04;;;;;;;20.52;6.85;;;8.70;99.90;;;;;;4935720;28;20055;-87
2022/01/27 10:45:30;;;;;;;25.40;7.82;;;8.80;99.90;;;;;;4935547;29;20523;-88
2022/01/27 10:48:23;;;;;;;22.92;6.90;;;8.80;99.90;;;;;;4919148;29;20173;-87
2022/01/27 10:51:03;;;;;;;16.70;6.55;;;8.70;99.90;;;;;;4920741;29;20063;-87
2022/01/27 10:54:04;;;;;;;19.40;6.88;;;8.80;99.90;;;;;;4952234;29;20480;-88
2022/01/27 10:56:38;;;;;;;22.15;6.28;;;8.90;99.90;;;;;;4938289;29;20083;-89
2022/01/27 10:59:05;;;;;;;22.25;7.00;;;8.90;99.90;;;;;;4950980;29;20162;-90
2022/01/27 11:01:37;;;;;;;25.17;6.10;;;8.90;99.90;;;;;;4953263;29;20047;-88
2022/01/27 11:04:05;;;;;;;18.40;5.88;;;8.90;99.90;;;;;;4937879;29;20059;-89
2022/01/27 11:06:33;;;;;;;20.17;6.40;;;9.00;99.90;;;;;;4957298;28;20066;-87
2022/01/27 11:09:02;;;;;;;18.65;6.38;;;9.00;99.90;;;;;;4956347;28;20054;-88
2022/01/27 11:11:27;;;;;;;23.67;6.82;;;9.00;99.90;;;;;;4940183;28;20050;-86
2022/01/27 11:13:54;;;;;;;19.48;6.15;;;8.90;99.90;;;;;;4953995;28;20093;-88
2022/01/27 11:16:26;;;;;;;23.80;5.80;;;8.80;99.90;;;;;;4937755;28;20059;-91
2022/01/27 11:18:56;;;;;;;23.92;6.30;;;8.90;99.90;;;;;;4925248;28;20117;-91
2022/01/27 11:21:35;;;;;;;24.08;6.57;;;8.80;99.90;;;;;;4961034;28;20053;-90
2022/01/27 11:24:07;;;;;;;26.60;6.45;;;8.90;99.90;;;;;;4945887;28;20039;-90
2022/01/27 11:26:34;;;;;;;31.02;6.40;;;8.90;99.90;;;;;;4961147;28;20047;-87
2022/01/27 11:29:01;;;;;;;22.42;6.13;;;9.00;99.90;;;;;;4931776;28;20116;-87
2022/01/27 11:31:45;;;;;;;19.75;5.63;;;9.00;99.90;;;;;;4942443;28;20058;-89
2022/01/27 11:34:11;;;;;;;;;;;9.10;99.90;;;;;;4956119;28;20043;-87
2022/01/27 11:36:38;;;;;;;21.67;6.35;;;9.10;99.90;;;;;;4937815;28;19971;-89
2022/01/27 11:39:10;;;;;;;23.05;5.63;;;9.10;99.90;;;;;;4937161;28;20055;-87
2022/01/27 11:41:40;;;;;;;23.02;5.32;;;9.10;99.90;;;;;;4952798;28;20530;-88
2022/01/27 11:44:28;;;;;;;17.70;5.32;;;9.20;99.90;;;;;;4937158;28;20479;-89
2022/01/27 11:50:01;;;;;;;20.83;4.72;;;9.10;99.90;;;;;;4962358;28;20050;-88
2022/01/27 11:53:03;;;;;;;23.17;4.93;;;9.20;99.90;;;;;;4972627;28;20133;-88
2022/01/27 11:55:29;;;;;;;24.48;4.97;;;9.10;99.90;;;;;;4957507;28;20050;-90
2022/01/27 11:58:10;;;;;;;20.48;4.78;;;9.10;99.90;;;;;;4988434;28;20508;-90
2022/01/27 12:00:37;;;;;;;23.50;4.95;;;9.10;99.90;;;;;;4972464;28;20083;-91
2022/01/27 12:03:03;;;;;;;20.55;4.43;;;9.20;99.90;;;;;;4971919;28;20061;-89
2022/01/27 12:05:32;;;;;;;20.10;4.57;;;9.30;99.90;;;;;;4972344;28;20050;-89
2022/01/27 12:08:13;;;;;;;22.40;5.05;;;9.30;99.90;;;;;;4954883;28;20131;-91
2022/01/27 12:10:45;;;;;;;15.23;3.58;;;9.30;99.90;;;;;;4957197;28;20054;-89
2022/01/27 12:13:49;;;;;;;21.02;4.65;;;9.30;99.90;;;;;;4956349;28;20586;-90
2022/01/27 12:18:49;;;;;;;24.27;6.22;;;9.40;99.90;;;;;;4971597;28;20050;-87
2022/01/27 12:21:31;;;;;;;18.13;4.55;;;9.30;99.90;;;;;;5007402;28;20059;-88
2022/01/27 12:24:25;;;;;;;20.38;4.15;;;9.40;99.90;;;;;;4955262;28;20054;-90
2022/01/27 12:27:07;;;;;;;18.10;4.30;;;9.40;99.90;;;;;;4971132;28;20107;-90
2022/01/27 12:29:35;;;;;;;18.48;4.40;;;9.40;99.90;;;;;;4989414;28;20491;-91
2022/01/27 12:32:07;;;;;;;18.17;4.30;;;9.40;99.90;;;;;;4971349;28;20394;-91
2022/01/27 12:34:35;;;;;;;22.00;5.72;;;9.30;99.90;;;;;;4971755;28;20109;-90
2022/01/27 12:37:08;;;;;;;24.27;4.40;;;9.30;99.90;;;;;;4955809;28;20400;-92
2022/01/27 12:39:42;;;;;;;18.77;4.10;;;9.30;99.90;;;;;;4955806;28;20057;-91
2022/01/27 12:42:12;;;;;;;20.42;4.95;;;9.20;99.90;;;;;;4945274;28;20062;-90
2022/01/27 12:44:41;;;;;;;23.13;4.50;;;9.20;99.90;;;;;;4974128;28;20050;-90
2022/01/27 12:47:13;;;;;;;21.52;4.20;;;9.20;99.90;;;;;;4988498;28;20129;-90
2022/01/27 12:49:43;;;;;;;25.90;4.85;;;9.10;99.90;;;;;;4952416;28;20050;-89
2022/01/27 12:52:18;;;;;;;21.58;4.40;;;9.10;99.90;;;;;;4936354;28;20141;-90
2022/01/27 12:54:44;;;;;;;;;;;9.10;99.90;;;;;;4936412;28;20115;-91
2022/01/27 12:57:10;;;;;;;18.35;3.95;;;9.00;99.90;;;;;;4970884;28;19965;-91
2022/01/27 12:59:41;;;;;;;23.98;4.00;;;9.10;99.90;;;;;;4955665;28;20057;-90
2022/01/27 13:02:08;;;;;;;19.27;3.65;;;9.00;99.90;;;;;;4940348;28;20051;-90
2022/01/27 13:04:36;;;;;;;15.80;3.72;;;9.10;99.90;;;;;;4957209;28;20062;-89
2022/01/27 13:07:02;;;;;;;26.15;5.07;;;9.10;99.90;;;;;;4969882;28;20063;-90
2022/01/27 13:09:28;;;;;;;18.33;3.47;;;9.20;99.90;;;;;;4953376;28;20065;-88
2022/01/27 13:11:56;;;;;;;20.85;3.92;;;9.20;99.90;;;;;;4937279;28;20090;-91
2022/01/27 13:14:22;;;;;;;19.17;3.97;;;9.10;99.90;;;;;;4936363;28;20155;-88
2022/01/27 13:16:56;;;;;;;25.88;4.15;;;9.10;99.90;;;;;;4920672;28;20093;-87
2022/01/27 13:19:42;;;;;;;28.55;5.30;;;9.20;99.90;;;;;;4952561;28;20473;-88
2022/01/27 13:22:13;;;;;;;27.05;4.05;;;9.20;99.90;;;;;;4952204;28;20101;-88
2022/01/27 13:24:47;;;;;;;24.20;3.95;;;9.20;99.90;;;;;;4952270;28;20058;-89
2022/01/27 13:27:13;;;;;;;22.43;4.53;;;9.20;99.90;;;;;;4951830;28;20080;-88
2022/01/27 13:29:40;;;;;;;21.60;4.10;;;9.20;99.90;;;;;;4959673;28;20346;-90
2022/01/27 13:32:07;;;;;;;18.98;3.80;;;9.20;99.90;;;;;;4954859;28;20529;-88
2022/01/27 13:34:33;;;;;;;17.00;2.88;;;9.20;99.90;;;;;;4954974;28;20050;-90
2022/01/27 13:37:01;;;;;;;26.38;4.07;;;9.30;99.90;;;;;;4935495;28;20047;-93
2022/01/27 13:41:54;;;;;;;23.15;4.47;;;9.30;99.90;;;;;;4955603;28;20054;-88
2022/01/27 13:44:20;;;;;;;18.73;3.33;;;9.20;99.90;;;;;;4971586;28;20541;-89
2022/01/27 13:46:55;;;;;;;19.77;3.70;;;9.20;99.90;;;;;;4972247;28;20385;-89
2022/01/27 13:49:29;;;;;;;24.52;4.22;;;9.30;99.90;;;;;;4938976;28;20050;-89
2022/01/27 13:52:00;;;;;;;23.35;4.20;;;9.20;99.90;;;;;;4923864;28;20082;-88
2022/01/27 13:54:46;;;;;;;20.65;4.32;;;8.50;99.90;;;;;;4955167;28;20058;-87
2022/01/27 13:57:15;;;;;;;24.08;4.00;;;9.30;99.90;;;;;;4971906;28;20047;-87